createdAt,value
2023-03-04T00:00:47.954Z,28.05
2023-03-04T00:03:15.872Z,26.60
2023-03-04T00:05:43.210Z,31.98
2023-03-04T00:08:10.285Z,27.95
2023-03-04T00:10:37.157Z,27.63
2023-03-04T00:13:04.207Z,30.08
2023-03-04T00:15:34.254Z,31.95
2023-03-04T00:18:01.422Z,36.95
2023-03-04T00:20:30.404Z,30.90
2023-03-04T00:22:57.218Z,26.85
2023-03-04T00:25:28.800Z,29.25
2023-03-04T00:30:29.471Z,23.73
2023-03-04T00:32:56.754Z,28.02
2023-03-04T00:35:23.672Z,26.05
2023-03-04T00:37:50.563Z,30.20
2023-03-04T00:40:17.862Z,27.52
2023-03-04T00:42:47.079Z,26.17
2023-03-04T00:45:13.893Z,28.35
2023-03-04T00:47:43.307Z,27.95
2023-03-04T00:50:11.310Z,27.83
2023-03-04T00:52:38.406Z,29.10
2023-03-04T00:55:06.828Z,27.65
2023-03-04T00:57:33.813Z,30.90
2023-03-04T01:00:00.964Z,29.65
2023-03-04T01:02:30.252Z,28.38
2023-03-04T01:04:59.568Z,27.20
2023-03-04T01:07:26.469Z,26.35
2023-03-04T01:09:53.363Z,26.52
2023-03-04T01:12:22.771Z,29.70
2023-03-04T01:14:49.927Z,29.58
2023-03-04T01:17:19.520Z,26.90
2023-03-04T01:19:46.468Z,26.02
2023-03-04T01:22:15.111Z,28.90
2023-03-04T01:24:42.553Z,28.67
2023-03-04T01:27:09.593Z,32.65
2023-03-04T01:29:36.542Z,28.80
2023-03-04T01:32:04.334Z,28.80
2023-03-04T01:34:31.298Z,29.65
2023-03-04T01:37:00.288Z,25.95
2023-03-04T01:39:27.425Z,27.92
2023-03-04T01:41:57.014Z,26.25
2023-03-04T01:44:24.170Z,28.65
2023-03-04T01:46:56.971Z,28.02
2023-03-04T01:49:24.024Z,28.13
2023-03-04T01:51:56.563Z,27.55
2023-03-04T01:54:25.910Z,28.08
2023-03-04T01:56:55.028Z,25.38
2023-03-04T01:59:25.041Z,26.48
2023-03-04T02:01:56.142Z,26.55
2023-03-04T02:04:28.878Z,24.60
2023-03-04T02:06:57.506Z,28.17
2023-03-04T02:09:26.864Z,27.33
2023-03-04T02:11:53.978Z,27.65
2023-03-04T02:14:21.741Z,28.27
2023-03-04T02:16:49.809Z,26.23
2023-03-04T02:19:41.392Z,34.28
2023-03-04T02:22:11.342Z,26.63
2023-03-04T02:24:49.056Z,28.20
2023-03-04T02:27:22.048Z,29.25
2023-03-04T02:29:49.326Z,28.05
2023-03-04T02:32:17.116Z,28.77
2023-03-04T02:34:51.456Z,32.15
2023-03-04T02:37:22.042Z,27.70
2023-03-04T02:39:54.684Z,30.70
2023-03-04T02:42:21.653Z,27.52
2023-03-04T02:44:59.451Z,29.08
2023-03-04T02:47:26.347Z,27.77
2023-03-04T02:49:53.348Z,26.50
2023-03-04T02:52:26.448Z,30.70
2023-03-04T02:54:53.325Z,27.83
2023-03-04T02:57:20.166Z,26.15
2023-03-04T02:59:47.114Z,29.58
2023-03-04T03:02:14.076Z,29.98
2023-03-04T03:04:41.549Z,30.42
2023-03-04T03:07:09.132Z,26.73
2023-03-04T03:09:38.347Z,29.80
2023-03-04T03:12:07.851Z,27.27
2023-03-04T03:14:34.772Z,29.70
2023-03-04T03:17:01.672Z,35.45
2023-03-04T03:19:28.483Z,30.73
2023-03-04T03:21:55.407Z,27.80
2023-03-04T03:24:22.336Z,29.40
2023-03-04T03:26:51.503Z,29.85
2023-03-04T03:29:21.362Z,28.90
2023-03-04T03:31:50.529Z,25.38
2023-03-04T03:34:17.468Z,28.58
2023-03-04T03:36:44.392Z,26.70
2023-03-04T03:39:11.364Z,29.90
2023-03-04T03:41:38.201Z,32.97
2023-03-04T03:44:05.270Z,26.75
2023-03-04T03:46:32.104Z,29.35
2023-03-04T03:48:58.997Z,26.88
2023-03-04T03:51:25.853Z,28.08
2023-03-04T03:53:52.758Z,29.17
2023-03-04T03:56:19.673Z,28.00
2023-03-04T03:58:46.543Z,28.95
2023-03-04T04:01:13.469Z,25.35
2023-03-04T04:03:40.549Z,29.25
2023-03-04T04:06:07.625Z,31.02
2023-03-04T04:08:34.530Z,30.15
2023-03-04T04:11:03.657Z,30.20
2023-03-04T04:13:30.614Z,29.73
2023-03-04T04:15:59.907Z,27.92
2023-03-04T04:18:26.942Z,30.17
2023-03-04T04:20:56.648Z,26.65
2023-03-04T04:23:25.773Z,28.00
2023-03-04T04:25:57.722Z,28.88
2023-03-04T04:28:25.131Z,27.20
2023-03-04T04:30:54.298Z,27.85
2023-03-04T04:33:21.120Z,28.33
2023-03-04T04:35:47.960Z,29.65
2023-03-04T04:38:17.417Z,29.60
2023-03-04T04:40:44.396Z,27.55
2023-03-04T04:43:11.346Z,29.65
2023-03-04T04:45:40.282Z,28.65
2023-03-04T04:48:07.390Z,29.42
2023-03-04T04:50:36.564Z,30.08
2023-03-04T04:53:03.453Z,28.98
2023-03-04T04:55:35.212Z,27.38
2023-03-04T04:58:06.647Z,30.80
2023-03-04T05:00:33.583Z,32.95
2023-03-04T05:03:02.720Z,25.17
2023-03-04T05:05:29.688Z,32.72
2023-03-04T05:07:56.656Z,31.60
2023-03-04T05:10:25.712Z,29.00
2023-03-04T05:12:52.540Z,29.27
2023-03-04T05:15:19.436Z,25.83
2023-03-04T05:17:48.861Z,30.60
2023-03-04T05:20:18.393Z,32.20
2023-03-04T05:22:48.234Z,36.75
2023-03-04T05:25:15.282Z,28.98
2023-03-04T05:27:42.104Z,28.13
2023-03-04T05:30:10.036Z,28.23
2023-03-04T05:32:38.987Z,29.40
2023-03-04T05:35:07.039Z,30.85
2023-03-04T05:37:34.007Z,29.95
2023-03-04T05:40:06.775Z,30.30
2023-03-04T05:42:36.132Z,27.13
2023-03-04T05:45:03.618Z,25.60
2023-03-04T05:47:30.491Z,27.90
2023-03-04T05:49:58.094Z,25.88
2023-03-04T05:52:27.250Z,27.52
2023-03-04T05:54:54.121Z,27.10
2023-03-04T05:57:23.275Z,28.88
2023-03-04T05:59:52.634Z,26.60
2023-03-04T06:02:22.137Z,27.85
2023-03-04T06:04:49.047Z,26.15
2023-03-04T06:07:16.126Z,27.10
2023-03-04T06:09:45.788Z,34.58
2023-03-04T06:12:18.453Z,29.77
2023-03-04T06:14:50.957Z,27.25
2023-03-04T06:17:18.119Z,30.38
2023-03-04T06:19:45.106Z,27.05
2023-03-04T06:22:12.591Z,27.23
2023-03-04T06:24:39.914Z,29.40
2023-03-04T06:27:07.117Z,29.23
2023-03-04T06:29:33.931Z,27.42
2023-03-04T06:32:02.955Z,28.67
2023-03-04T06:34:29.901Z,30.20
2023-03-04T06:36:56.734Z,33.17
2023-03-04T06:39:23.691Z,30.65
2023-03-04T06:41:53.575Z,27.30
2023-03-04T06:44:22.760Z,30.55
2023-03-04T06:46:49.697Z,35.65
2023-03-04T06:49:19.166Z,30.58
2023-03-04T06:51:46.033Z,30.15
2023-03-04T06:54:12.910Z,28.77
2023-03-04T06:56:39.805Z,31.70
2023-03-04T06:59:09.162Z,35.00
2023-03-04T07:01:36.700Z,33.30
2023-03-04T07:04:04.185Z,30.80
2023-03-04T07:06:31.447Z,31.33
2023-03-04T07:08:58.633Z,31.17
2023-03-04T07:11:30.236Z,29.65
2023-03-04T07:16:24.452Z,29.83
2023-03-04T07:18:56.014Z,33.35
2023-03-04T07:21:23.000Z,32.28
2023-03-04T07:23:49.839Z,30.58
2023-03-04T07:26:17.756Z,30.10
2023-03-04T07:28:47.824Z,31.10
2023-03-04T07:31:30.372Z,33.78
2023-03-04T07:34:06.721Z,29.42
2023-03-04T07:36:38.767Z,35.63
2023-03-04T07:39:06.957Z,35.10
2023-03-04T07:41:38.310Z,34.22
2023-03-04T07:44:13.381Z,39.00
2023-03-04T07:46:40.926Z,39.63
2023-03-04T07:49:08.326Z,40.40
2023-03-04T07:51:35.726Z,38.70
2023-03-04T07:54:02.756Z,40.63
2023-03-04T07:56:33.213Z,44.40
2023-03-04T07:59:00.849Z,40.08
2023-03-04T08:01:37.030Z,41.97
2023-03-04T08:04:08.774Z,39.92
2023-03-04T08:06:36.118Z,34.85
2023-03-04T08:09:08.260Z,40.97
2023-03-04T08:11:38.589Z,40.55
2023-03-04T08:14:05.897Z,37.40
2023-03-04T08:16:33.302Z,36.13
2023-03-04T08:19:07.398Z,37.40
2023-03-04T08:21:41.265Z,32.35
2023-03-04T08:24:10.701Z,34.42
2023-03-04T08:26:43.592Z,31.67
2023-03-04T08:29:17.315Z,28.42
2023-03-04T08:31:48.656Z,31.92
2023-03-04T08:34:16.372Z,32.22
2023-03-04T08:36:43.646Z,28.70
2023-03-04T08:39:14.235Z,32.03
2023-03-04T08:41:41.868Z,31.80
2023-03-04T08:44:10.360Z,30.73
2023-03-04T08:46:39.096Z,32.83
2023-03-04T08:49:06.108Z,31.65
2023-03-04T08:51:36.363Z,33.50
2023-03-04T08:54:04.733Z,31.20
2023-03-04T08:56:31.658Z,29.65
2023-03-04T08:58:59.417Z,32.05
2023-03-04T09:01:26.409Z,31.40
2023-03-04T09:03:53.485Z,31.90
2023-03-04T09:06:22.992Z,34.33
2023-03-04T09:08:49.901Z,30.52
2023-03-04T09:11:16.998Z,32.58
2023-03-04T09:13:43.950Z,30.88
2023-03-04T09:16:15.399Z,35.05
2023-03-04T09:18:45.909Z,33.08
2023-03-04T09:21:15.064Z,28.33
2023-03-04T09:23:42.143Z,27.15
2023-03-04T09:26:23.656Z,27.55
2023-03-04T09:28:57.880Z,28.33
2023-03-04T09:31:26.100Z,24.85
2023-03-04T09:33:58.140Z,30.63
2023-03-04T09:36:29.713Z,29.98
2023-03-04T09:39:01.569Z,30.83
2023-03-04T09:41:43.886Z,31.58
2023-03-04T09:44:32.468Z,36.10
2023-03-04T09:47:03.510Z,34.58
2023-03-04T09:49:38.046Z,30.63
2023-03-04T09:52:47.300Z,30.27
2023-03-04T09:55:39.109Z,33.40
2023-03-04T09:58:55.197Z,32.90
2023-03-04T10:01:29.124Z,30.08
2023-03-04T10:04:20.879Z,30.70
2023-03-04T10:09:45.902Z,30.00
2023-03-04T10:12:19.574Z,31.65
2023-03-04T10:15:00.932Z,31.98
2023-03-04T10:17:38.123Z,32.22
2023-03-04T10:20:23.612Z,32.92
2023-03-04T10:22:56.937Z,29.73
2023-03-04T10:25:30.702Z,32.45
2023-03-04T10:28:05.315Z,30.85
2023-03-04T10:31:10.170Z,30.30
2023-03-04T10:33:39.965Z,30.27
2023-03-04T10:36:31.281Z,28.85
2023-03-04T10:39:08.177Z,27.88
2023-03-04T10:41:35.284Z,29.10
2023-03-04T10:44:19.221Z,26.50
2023-03-04T10:46:49.285Z,27.92
2023-03-04T10:49:20.204Z,28.95
2023-03-04T10:52:03.769Z,29.80
2023-03-04T10:54:53.506Z,30.55
2023-03-04T10:57:38.850Z,27.40
2023-03-04T11:00:17.955Z,28.67
2023-03-04T11:02:49.256Z,27.60
2023-03-04T11:05:22.711Z,28.02
2023-03-04T11:07:56.803Z,27.30
2023-03-04T11:10:36.650Z,27.60
2023-03-04T11:13:24.012Z,24.63
2023-03-04T11:16:22.112Z,24.15
2023-03-04T11:18:55.911Z,22.65
2023-03-04T11:21:33.043Z,25.08
2023-03-04T11:24:28.906Z,23.95
2023-03-04T11:27:22.499Z,24.17
2023-03-04T11:29:58.197Z,20.73
2023-03-04T11:32:31.776Z,23.77
2023-03-04T11:35:06.520Z,21.63
2023-03-04T11:38:04.450Z,20.83
2023-03-04T11:40:35.603Z,22.90
2023-03-04T11:43:41.495Z,26.00
2023-03-04T11:46:46.461Z,20.77
2023-03-04T11:50:15.431Z,16.23
2023-03-04T11:53:05.028Z,16.48
2023-03-04T11:55:41.999Z,18.33
2023-03-04T11:58:46.031Z,15.85
2023-03-04T12:01:29.848Z,14.05
2023-03-04T12:04:25.699Z,16.90
2023-03-04T12:07:09.942Z,14.00
2023-03-04T12:09:52.045Z,15.63
2023-03-04T12:13:08.765Z,12.77
2023-03-04T12:16:13.678Z,13.80
2023-03-04T12:19:02.026Z,17.15
2023-03-04T12:21:42.474Z,18.08
2023-03-04T12:24:34.832Z,10.05
2023-03-04T12:27:28.203Z,10.27
2023-03-04T12:30:20.426Z,8.07
2023-03-04T12:33:13.841Z,10.75
2023-03-04T12:36:22.579Z,10.43
2023-03-04T12:38:58.484Z,11.93
2023-03-04T12:41:39.962Z,14.50
2023-03-04T12:44:22.581Z,12.73
2023-03-04T12:47:01.521Z,12.40
2023-03-04T12:50:01.853Z,13.85
2023-03-04T12:53:14.751Z,11.00
2023-03-04T12:55:45.691Z,10.80
2023-03-04T12:58:27.243Z,11.38
2023-03-04T13:01:29.107Z,12.65
2023-03-04T13:07:16.638Z,10.68
2023-03-04T13:10:23.535Z,12.13
2023-03-04T13:12:54.888Z,13.95
2023-03-04T13:15:21.684Z,10.35
2023-03-04T13:18:27.731Z,10.10
2023-03-04T13:21:25.367Z,10.43
2023-03-04T13:23:55.428Z,12.60
2023-03-04T13:26:34.444Z,10.95
2023-03-04T13:29:36.909Z,10.48
2023-03-04T13:32:10.873Z,12.57
2023-03-04T13:34:57.704Z,11.98
2023-03-04T13:37:58.857Z,12.77
2023-03-04T13:40:38.989Z,12.23
2023-03-04T13:43:49.238Z,10.95
2023-03-04T13:46:19.426Z,11.98
2023-03-04T13:48:52.336Z,13.38
2023-03-04T13:51:37.741Z,12.23
2023-03-04T13:54:30.644Z,11.60
2023-03-04T13:57:22.418Z,14.20
2023-03-04T14:02:27.198Z,13.05
2023-03-04T14:04:56.121Z,11.27
2023-03-04T14:07:34.601Z,12.30
2023-03-04T14:10:23.183Z,11.85
2023-03-04T14:13:04.155Z,12.52
2023-03-04T14:15:35.405Z,12.35
2023-03-04T14:18:05.058Z,12.20
2023-03-04T14:20:42.717Z,17.02
2023-03-04T14:23:34.446Z,12.80
2023-03-04T14:26:17.550Z,12.63
2023-03-04T14:28:51.894Z,15.05
2023-03-04T14:31:27.536Z,12.45
2023-03-04T14:34:04.770Z,13.60
2023-03-04T14:36:36.936Z,13.82
2023-03-04T14:39:08.590Z,14.48
2023-03-04T14:41:39.931Z,14.38
2023-03-04T14:44:35.027Z,18.30
2023-03-04T14:47:26.568Z,15.50
2023-03-04T14:49:53.788Z,14.55
2023-03-04T14:52:51.631Z,12.75
2023-03-04T14:55:27.559Z,13.77
2023-03-04T14:58:16.781Z,18.02
2023-03-04T15:00:46.711Z,13.23
2023-03-04T15:03:31.249Z,16.38
2023-03-04T15:06:23.196Z,15.68
2023-03-04T15:09:20.633Z,16.40
2023-03-04T15:12:03.678Z,16.50
2023-03-04T15:14:53.950Z,17.73
2023-03-04T15:17:39.860Z,17.08
2023-03-04T15:20:09.475Z,15.45
2023-03-04T15:23:06.331Z,18.45
2023-03-04T15:25:36.455Z,17.77
2023-03-04T15:28:04.381Z,15.98
2023-03-04T15:30:34.231Z,17.00
2023-03-04T15:33:04.182Z,20.42
2023-03-04T15:35:33.365Z,17.42
2023-03-04T15:38:00.620Z,19.60
2023-03-04T15:40:44.699Z,16.33
2023-03-04T15:43:17.683Z,17.90
2023-03-04T15:45:45.270Z,17.95
2023-03-04T15:48:19.153Z,18.10
2023-03-04T15:51:01.129Z,18.52
2023-03-04T15:53:46.744Z,16.75
2023-03-04T15:56:25.004Z,16.77
2023-03-04T15:59:01.484Z,17.55
2023-03-04T16:01:30.727Z,19.13
2023-03-04T16:04:00.171Z,20.35
2023-03-04T16:06:31.199Z,20.38
2023-03-04T16:09:01.033Z,17.45
2023-03-04T16:11:32.852Z,18.50
2023-03-04T16:14:02.230Z,19.25
2023-03-04T16:16:29.575Z,17.92
2023-03-04T16:18:56.518Z,23.08
2023-03-04T16:21:23.471Z,19.55
2023-03-04T16:23:52.161Z,19.88
2023-03-04T16:26:22.761Z,19.17
2023-03-04T16:28:52.556Z,20.17
2023-03-04T16:31:21.884Z,22.48
2023-03-04T16:33:51.477Z,21.55
2023-03-04T16:36:25.652Z,23.05
2023-03-04T16:39:02.429Z,22.63
2023-03-04T16:41:36.969Z,21.00
2023-03-04T16:44:04.048Z,21.08
2023-03-04T16:46:33.014Z,21.23
2023-03-04T16:48:59.895Z,21.02
2023-03-04T16:51:31.327Z,21.98
2023-03-04T16:54:02.514Z,20.33
2023-03-04T16:56:31.962Z,19.88
2023-03-04T16:59:00.177Z,21.85
2023-03-04T17:01:31.708Z,22.05
2023-03-04T17:06:28.184Z,20.65
2023-03-04T17:08:55.048Z,21.10
2023-03-04T17:11:26.395Z,20.25
2023-03-04T17:13:56.142Z,21.48
2023-03-04T17:16:23.237Z,24.52
2023-03-04T17:18:50.218Z,21.45
2023-03-04T17:21:25.243Z,24.65
2023-03-04T17:23:56.409Z,25.00
2023-03-04T17:26:25.528Z,23.55
2023-03-04T17:28:54.700Z,23.83
2023-03-04T17:31:26.544Z,24.98
2023-03-04T17:33:53.428Z,22.15
2023-03-04T17:36:20.408Z,25.17
2023-03-04T17:38:49.476Z,23.38
2023-03-04T17:41:18.551Z,22.33
2023-03-04T17:43:51.210Z,22.27
2023-03-04T17:46:22.645Z,23.23
2023-03-04T17:48:59.807Z,19.83
2023-03-04T17:51:47.580Z,25.00
2023-03-04T17:54:14.460Z,26.05
2023-03-04T17:56:43.436Z,27.38
2023-03-04T17:59:16.338Z,29.00
2023-03-04T18:01:47.904Z,24.65
2023-03-04T18:06:42.697Z,23.70
2023-03-04T18:09:10.054Z,22.60
2023-03-04T18:11:38.996Z,24.63
2023-03-04T18:14:12.590Z,23.73
2023-03-04T18:16:40.347Z,25.23
2023-03-04T18:19:09.854Z,26.20
2023-03-04T18:21:38.975Z,22.70
2023-03-04T18:24:06.960Z,21.83
2023-03-04T18:26:34.047Z,22.98
2023-03-04T18:29:03.960Z,26.90
2023-03-04T18:31:32.506Z,27.98
2023-03-04T18:34:01.740Z,25.23
2023-03-04T18:36:29.552Z,26.63
2023-03-04T18:38:59.578Z,26.73
2023-03-04T18:41:27.894Z,26.00
2023-03-04T18:43:55.270Z,27.45
2023-03-04T18:46:27.950Z,28.20
2023-03-04T18:49:00.860Z,25.65
2023-03-04T18:51:32.428Z,25.08
2023-03-04T18:56:38.229Z,28.23
2023-03-04T18:59:15.951Z,28.33
2023-03-04T19:01:45.944Z,30.85
2023-03-04T19:04:14.368Z,27.15
2023-03-04T19:06:43.442Z,29.80
2023-03-04T19:09:10.546Z,30.52
2023-03-04T19:11:37.490Z,32.33
2023-03-04T19:14:05.797Z,30.92
2023-03-04T19:16:35.842Z,32.03
2023-03-04T19:19:07.651Z,30.40
2023-03-04T19:21:41.940Z,30.92
2023-03-04T19:24:08.934Z,27.77
2023-03-04T19:26:38.804Z,28.60
2023-03-04T19:29:07.284Z,29.70
2023-03-04T19:31:34.764Z,28.33
2023-03-04T19:34:06.816Z,31.40
2023-03-04T19:36:36.300Z,30.20
2023-03-04T19:39:03.806Z,29.67
2023-03-04T19:41:35.404Z,30.73
2023-03-04T19:46:32.285Z,26.52
2023-03-04T19:49:01.663Z,29.40
2023-03-04T19:51:33.059Z,33.72
2023-03-04T19:54:00.424Z,30.15
2023-03-04T19:56:27.391Z,28.38
2023-03-04T19:58:58.617Z,34.13
2023-03-04T20:01:32.711Z,32.05
2023-03-04T20:04:08.076Z,32.10
2023-03-04T20:06:42.069Z,30.98
2023-03-04T20:09:09.498Z,30.45
2023-03-04T20:11:44.215Z,35.05
2023-03-04T20:14:17.885Z,35.50
2023-03-04T20:16:49.601Z,34.08
2023-03-04T20:19:18.756Z,34.58
2023-03-04T20:21:45.597Z,34.00
2023-03-04T20:24:13.044Z,33.53
2023-03-04T20:26:42.176Z,32.95
2023-03-04T20:29:09.085Z,34.15
2023-03-04T20:31:39.288Z,32.00
2023-03-04T20:34:07.886Z,36.50
2023-03-04T20:36:35.891Z,29.30
2023-03-04T20:39:15.414Z,30.75
2023-03-04T20:41:55.540Z,38.33
2023-03-04T20:44:22.493Z,32.22
2023-03-04T20:46:49.390Z,31.73
2023-03-04T20:49:25.043Z,35.00
2023-03-04T20:51:54.096Z,51.05
2023-03-04T20:54:21.804Z,42.03
2023-03-04T20:56:51.284Z,34.17
2023-03-04T20:59:18.597Z,34.38
2023-03-04T21:01:52.240Z,32.28
2023-03-04T21:04:20.447Z,26.92
2023-03-04T21:06:48.351Z,31.67
2023-03-04T21:09:17.837Z,26.55
2023-03-04T21:11:48.332Z,32.25
2023-03-04T21:14:22.207Z,28.75
2023-03-04T21:16:54.755Z,30.45
2023-03-04T21:19:36.147Z,27.00
2023-03-04T21:22:04.329Z,25.70
2023-03-04T21:24:37.798Z,25.10
2023-03-04T21:27:06.266Z,28.45
2023-03-04T21:29:35.297Z,31.13
2023-03-04T21:32:23.346Z,29.40
2023-03-04T21:34:52.315Z,30.30
2023-03-04T21:37:23.947Z,28.02
2023-03-04T21:39:51.132Z,28.13
2023-03-04T21:42:20.343Z,27.40
2023-03-04T21:44:52.228Z,28.63
2023-03-04T21:47:27.064Z,30.25
2023-03-04T21:49:54.002Z,26.77
2023-03-04T21:52:22.217Z,29.15
2023-03-04T21:54:49.748Z,32.83
2023-03-04T21:57:17.232Z,34.15
2023-03-04T21:59:44.150Z,33.22
2023-03-04T22:02:25.893Z,32.97
2023-03-04T22:07:23.710Z,28.77
2023-03-04T22:09:50.576Z,28.15
2023-03-04T22:12:20.377Z,27.13
2023-03-04T22:14:47.432Z,34.13
2023-03-04T22:17:14.491Z,30.50
2023-03-04T22:19:41.547Z,28.73
2023-03-04T22:22:08.426Z,33.63
2023-03-04T22:24:35.315Z,30.77
2023-03-04T22:27:02.259Z,31.67
2023-03-04T22:29:29.210Z,27.95
2023-03-04T22:31:58.364Z,28.60
2023-03-04T22:34:27.613Z,29.75
2023-03-04T22:36:54.478Z,29.25
2023-03-04T22:39:23.581Z,25.67
2023-03-04T22:41:55.292Z,31.05
2023-03-04T22:44:26.630Z,30.30
2023-03-04T22:46:58.107Z,28.90
2023-03-04T22:49:24.964Z,27.77
2023-03-04T22:51:55.034Z,35.25
2023-03-04T22:54:21.932Z,35.70
2023-03-04T22:56:53.323Z,31.40
2023-03-04T22:59:22.673Z,32.97
2023-03-04T23:01:49.567Z,30.55
2023-03-04T23:04:16.441Z,33.88
2023-03-04T23:06:43.309Z,28.15
2023-03-04T23:09:12.327Z,29.85
2023-03-04T23:11:42.260Z,31.23
2023-03-04T23:14:12.227Z,28.52
2023-03-04T23:16:44.045Z,31.27
2023-03-04T23:19:18.578Z,35.22
2023-03-04T23:21:47.967Z,29.85
2023-03-04T23:24:20.177Z,31.00
2023-03-04T23:26:48.155Z,31.83
2023-03-04T23:29:16.371Z,28.75
2023-03-04T23:31:45.758Z,34.47
2023-03-04T23:34:13.500Z,33.95
2023-03-04T23:36:40.938Z,30.27
2023-03-04T23:39:11.264Z,27.17
2023-03-04T23:41:39.757Z,28.17
2023-03-04T23:44:08.128Z,31.27
2023-03-04T23:46:38.619Z,30.35
2023-03-04T23:49:12.836Z,28.13
2023-03-04T23:51:40.959Z,32.13
2023-03-04T23:54:12.989Z,30.80
2023-03-04T23:56:40.353Z,26.88
2023-03-04T23:59:11.807Z,29.98
